sensor_id;sensor_type;location;lat;lon;timestamp;P1;durP1;ratioP1;P2;durP2;ratioP2
75218;SDS011;63801;49.414;19.474;2023-06-14T00:00:38;15.50;;;9.07;;
75218;SDS011;63801;49.414;19.474;2023-06-14T00:02:41;15.65;;;8.68;;
75218;SDS011;63801;49.414;19.474;2023-06-14T00:04:44;13.75;;;8.48;;
75218;SDS011;63801;49.414;19.474;2023-06-14T00:06:45;13.13;;;8.30;;
75218;SDS011;63801;49.414;19.474;2023-06-14T00:08:46;13.45;;;7.30;;
75218;SDS011;63801;49.414;19.474;2023-06-14T00:10:46;11.95;;;7.45;;
75218;SDS011;63801;49.414;19.474;2023-06-14T00:12:47;13.98;;;7.28;;
75218;SDS011;63801;49.414;19.474;2023-06-14T00:14:48;12.20;;;7.43;;
75218;SDS011;63801;49.414;19.474;2023-06-14T00:16:48;11.93;;;7.25;;
75218;SDS011;63801;49.414;19.474;2023-06-14T00:18:49;12.43;;;7.35;;
75218;SDS011;63801;49.414;19.474;2023-06-14T00:20:51;15.93;;;8.63;;
75218;SDS011;63801;49.414;19.474;2023-06-14T00:22:52;12.60;;;8.15;;
75218;SDS011;63801;49.414;19.474;2023-06-14T00:24:52;15.07;;;7.28;;
75218;SDS011;63801;49.414;19.474;2023-06-14T00:26:52;15.23;;;8.18;;
75218;SDS011;63801;49.414;19.474;2023-06-14T00:28:55;17.73;;;7.82;;
75218;SDS011;63801;49.414;19.474;2023-06-14T00:30:56;15.10;;;7.95;;
75218;SDS011;63801;49.414;19.474;2023-06-14T00:32:57;14.88;;;7.95;;
75218;SDS011;63801;49.414;19.474;2023-06-14T00:34:57;13.00;;;7.70;;
75218;SDS011;63801;49.414;19.474;2023-06-14T00:36:58;14.80;;;8.10;;
75218;SDS011;63801;49.414;19.474;2023-06-14T00:38:59;13.43;;;7.43;;
75218;SDS011;63801;49.414;19.474;2023-06-14T00:40:59;13.73;;;6.90;;
75218;SDS011;63801;49.414;19.474;2023-06-14T00:43:00;13.43;;;7.00;;
75218;SDS011;63801;49.414;19.474;2023-06-14T00:45:00;13.80;;;7.32;;
75218;SDS011;63801;49.414;19.474;2023-06-14T00:47:00;16.48;;;7.72;;
75218;SDS011;63801;49.414;19.474;2023-06-14T00:49:01;15.77;;;8.05;;
75218;SDS011;63801;49.414;19.474;2023-06-14T00:51:02;13.50;;;8.10;;
75218;SDS011;63801;49.414;19.474;2023-06-14T00:53:03;15.45;;;7.97;;
75218;SDS011;63801;49.414;19.474;2023-06-14T00:55:04;18.05;;;9.13;;
75218;SDS011;63801;49.414;19.474;2023-06-14T00:57:05;16.42;;;10.13;;
75218;SDS011;63801;49.414;19.474;2023-06-14T00:59:07;25.08;;;12.85;;
75218;SDS011;63801;49.414;19.474;2023-06-14T01:01:07;22.73;;;12.32;;
75218;SDS011;63801;49.414;19.474;2023-06-14T01:03:07;23.55;;;12.75;;
75218;SDS011;63801;49.414;19.474;2023-06-14T01:05:12;22.83;;;12.38;;
75218;SDS011;63801;49.414;19.474;2023-06-14T01:07:34;22.33;;;12.77;;
75218;SDS011;63801;49.414;19.474;2023-06-14T01:14:07;15.43;;;9.60;;
75218;SDS011;63801;49.414;19.474;2023-06-14T01:16:09;16.65;;;9.52;;
75218;SDS011;63801;49.414;19.474;2023-06-14T01:18:10;14.52;;;8.20;;
75218;SDS011;63801;49.414;19.474;2023-06-14T01:20:18;12.77;;;7.45;;
75218;SDS011;63801;49.414;19.474;2023-06-14T01:22:20;10.50;;;6.88;;
75218;SDS011;63801;49.414;19.474;2023-06-14T01:24:21;12.48;;;7.28;;
75218;SDS011;63801;49.414;19.474;2023-06-14T01:26:25;14.75;;;7.20;;
75218;SDS011;63801;49.414;19.474;2023-06-14T01:28:29;13.05;;;7.47;;
75218;SDS011;63801;49.414;19.474;2023-06-14T01:30:33;11.27;;;6.65;;
75218;SDS011;63801;49.414;19.474;2023-06-14T01:32:34;12.20;;;6.80;;
75218;SDS011;63801;49.414;19.474;2023-06-14T01:34:35;12.95;;;7.93;;
75218;SDS011;63801;49.414;19.474;2023-06-14T01:36:36;12.10;;;7.57;;
75218;SDS011;63801;49.414;19.474;2023-06-14T01:38:40;13.80;;;7.13;;
75218;SDS011;63801;49.414;19.474;2023-06-14T01:42:44;12.27;;;7.15;;
75218;SDS011;63801;49.414;19.474;2023-06-14T01:44:47;12.55;;;6.72;;
75218;SDS011;63801;49.414;19.474;2023-06-14T01:46:48;12.70;;;7.05;;
75218;SDS011;63801;49.414;19.474;2023-06-14T01:48:49;11.52;;;6.50;;
75218;SDS011;63801;49.414;19.474;2023-06-14T01:50:50;15.95;;;8.68;;
75218;SDS011;63801;49.414;19.474;2023-06-14T01:52:50;14.15;;;8.20;;
75218;SDS011;63801;49.414;19.474;2023-06-14T01:54:51;13.88;;;7.57;;
75218;SDS011;63801;49.414;19.474;2023-06-14T01:56:51;11.90;;;6.88;;
75218;SDS011;63801;49.414;19.474;2023-06-14T01:58:52;13.18;;;6.68;;
75218;SDS011;63801;49.414;19.474;2023-06-14T02:00:53;11.57;;;6.72;;
75218;SDS011;63801;49.414;19.474;2023-06-14T02:02:55;11.77;;;7.00;;
75218;SDS011;63801;49.414;19.474;2023-06-14T02:04:55;10.95;;;6.22;;
75218;SDS011;63801;49.414;19.474;2023-06-14T02:06:57;12.05;;;7.53;;
75218;SDS011;63801;49.414;19.474;2023-06-14T02:08:57;12.45;;;7.35;;
75218;SDS011;63801;49.414;19.474;2023-06-14T02:10:58;15.85;;;8.63;;
75218;SDS011;63801;49.414;19.474;2023-06-14T02:12:58;14.43;;;8.77;;
75218;SDS011;63801;49.414;19.474;2023-06-14T02:14:58;16.20;;;9.52;;
75218;SDS011;63801;49.414;19.474;2023-06-14T02:16:59;14.02;;;7.78;;
75218;SDS011;63801;49.414;19.474;2023-06-14T02:19:00;13.03;;;7.13;;
75218;SDS011;63801;49.414;19.474;2023-06-14T02:21:01;11.93;;;7.07;;
75218;SDS011;63801;49.414;19.474;2023-06-14T02:23:01;11.82;;;6.97;;
75218;SDS011;63801;49.414;19.474;2023-06-14T02:25:02;12.60;;;7.50;;
75218;SDS011;63801;49.414;19.474;2023-06-14T02:27:03;12.65;;;7.53;;
75218;SDS011;63801;49.414;19.474;2023-06-14T02:29:05;13.20;;;7.13;;
75218;SDS011;63801;49.414;19.474;2023-06-14T02:31:05;12.27;;;7.60;;
75218;SDS011;63801;49.414;19.474;2023-06-14T02:33:06;12.20;;;7.25;;
75218;SDS011;63801;49.414;19.474;2023-06-14T02:35:07;15.52;;;7.82;;
75218;SDS011;63801;49.414;19.474;2023-06-14T02:37:07;11.05;;;6.93;;
75218;SDS011;63801;49.414;19.474;2023-06-14T02:39:08;13.02;;;7.68;;
75218;SDS011;63801;49.414;19.474;2023-06-14T02:41:10;15.07;;;7.93;;
75218;SDS011;63801;49.414;19.474;2023-06-14T02:43:10;12.45;;;7.63;;
75218;SDS011;63801;49.414;19.474;2023-06-14T02:45:10;12.63;;;8.23;;
75218;SDS011;63801;49.414;19.474;2023-06-14T02:47:11;13.57;;;8.00;;
75218;SDS011;63801;49.414;19.474;2023-06-14T02:49:11;13.93;;;8.18;;
75218;SDS011;63801;49.414;19.474;2023-06-14T02:51:12;14.48;;;8.02;;
75218;SDS011;63801;49.414;19.474;2023-06-14T02:53:12;15.88;;;8.90;;
75218;SDS011;63801;49.414;19.474;2023-06-14T02:55:13;14.38;;;8.43;;
75218;SDS011;63801;49.414;19.474;2023-06-14T02:57:14;13.07;;;8.10;;
75218;SDS011;63801;49.414;19.474;2023-06-14T02:59:15;13.38;;;7.88;;
75218;SDS011;63801;49.414;19.474;2023-06-14T03:01:15;12.95;;;8.13;;
75218;SDS011;63801;49.414;19.474;2023-06-14T03:03:16;16.30;;;8.88;;
75218;SDS011;63801;49.414;19.474;2023-06-14T03:05:18;13.40;;;8.35;;
75218;SDS011;63801;49.414;19.474;2023-06-14T03:07:21;17.25;;;9.30;;
75218;SDS011;63801;49.414;19.474;2023-06-14T03:09:23;16.20;;;9.83;;
75218;SDS011;63801;49.414;19.474;2023-06-14T03:11:23;20.77;;;10.05;;
75218;SDS011;63801;49.414;19.474;2023-06-14T03:13:24;18.02;;;9.82;;
75218;SDS011;63801;49.414;19.474;2023-06-14T03:15:24;20.05;;;10.35;;
75218;SDS011;63801;49.414;19.474;2023-06-14T03:17:24;22.02;;;10.32;;
75218;SDS011;63801;49.414;19.474;2023-06-14T03:19:30;25.60;;;10.32;;
75218;SDS011;63801;49.414;19.474;2023-06-14T03:21:30;24.60;;;11.02;;
75218;SDS011;63801;49.414;19.474;2023-06-14T03:23:31;28.08;;;12.40;;
75218;SDS011;63801;49.414;19.474;2023-06-14T03:25:31;30.38;;;11.40;;
75218;SDS011;63801;49.414;19.474;2023-06-14T03:27:35;30.00;;;12.75;;
75218;SDS011;63801;49.414;19.474;2023-06-14T03:29:35;28.92;;;13.20;;
75218;SDS011;63801;49.414;19.474;2023-06-14T03:31:36;26.30;;;12.23;;
75218;SDS011;63801;49.414;19.474;2023-06-14T03:33:36;20.15;;;10.50;;
75218;SDS011;63801;49.414;19.474;2023-06-14T03:35:36;14.73;;;8.23;;
75218;SDS011;63801;49.414;19.474;2023-06-14T03:37:37;11.45;;;7.30;;
75218;SDS011;63801;49.414;19.474;2023-06-14T03:39:37;13.90;;;7.18;;
75218;SDS011;63801;49.414;19.474;2023-06-14T03:41:38;16.45;;;8.40;;
75218;SDS011;63801;49.414;19.474;2023-06-14T03:43:38;16.00;;;7.80;;
75218;SDS011;63801;49.414;19.474;2023-06-14T03:45:38;10.68;;;6.45;;
75218;SDS011;63801;49.414;19.474;2023-06-14T03:47:39;15.02;;;7.43;;
75218;SDS011;63801;49.414;19.474;2023-06-14T03:49:39;17.92;;;8.98;;
75218;SDS011;63801;49.414;19.474;2023-06-14T03:51:40;17.65;;;8.57;;
75218;SDS011;63801;49.414;19.474;2023-06-14T03:53:41;24.13;;;10.75;;
75218;SDS011;63801;49.414;19.474;2023-06-14T03:55:41;27.73;;;11.60;;
75218;SDS011;63801;49.414;19.474;2023-06-14T03:57:42;27.42;;;12.32;;
75218;SDS011;63801;49.414;19.474;2023-06-14T03:59:42;23.98;;;10.63;;
75218;SDS011;63801;49.414;19.474;2023-06-14T04:01:43;26.13;;;11.70;;
75218;SDS011;63801;49.414;19.474;2023-06-14T04:03:44;22.65;;;11.15;;
75218;SDS011;63801;49.414;19.474;2023-06-14T04:05:45;16.13;;;8.30;;
75218;SDS011;63801;49.414;19.474;2023-06-14T04:07:49;23.85;;;10.55;;
75218;SDS011;63801;49.414;19.474;2023-06-14T04:09:50;24.70;;;10.65;;
75218;SDS011;63801;49.414;19.474;2023-06-14T04:11:51;22.52;;;10.00;;
75218;SDS011;63801;49.414;19.474;2023-06-14T04:13:52;19.05;;;9.52;;
75218;SDS011;63801;49.414;19.474;2023-06-14T04:15:53;26.45;;;11.13;;
75218;SDS011;63801;49.414;19.474;2023-06-14T04:17:56;26.27;;;9.55;;
75218;SDS011;63801;49.414;19.474;2023-06-14T04:19:57;24.70;;;10.75;;
75218;SDS011;63801;49.414;19.474;2023-06-14T04:21:58;28.92;;;10.88;;
75218;SDS011;63801;49.414;19.474;2023-06-14T04:24:01;23.25;;;10.38;;
75218;SDS011;63801;49.414;19.474;2023-06-14T04:26:02;23.95;;;11.20;;
75218;SDS011;63801;49.414;19.474;2023-06-14T04:28:02;24.73;;;12.05;;
75218;SDS011;63801;49.414;19.474;2023-06-14T04:30:03;24.10;;;11.55;;
75218;SDS011;63801;49.414;19.474;2023-06-14T04:32:04;24.98;;;11.75;;
75218;SDS011;63801;49.414;19.474;2023-06-14T04:34:05;28.35;;;12.63;;
75218;SDS011;63801;49.414;19.474;2023-06-14T04:36:06;25.63;;;11.55;;
75218;SDS011;63801;49.414;19.474;2023-06-14T04:38:07;29.40;;;11.82;;
75218;SDS011;63801;49.414;19.474;2023-06-14T04:40:10;25.98;;;11.27;;
75218;SDS011;63801;49.414;19.474;2023-06-14T04:42:11;25.92;;;11.05;;
75218;SDS011;63801;49.414;19.474;2023-06-14T04:44:11;34.80;;;11.73;;
75218;SDS011;63801;49.414;19.474;2023-06-14T04:46:12;37.10;;;12.68;;
75218;SDS011;63801;49.414;19.474;2023-06-14T04:48:14;32.92;;;12.45;;
75218;SDS011;63801;49.414;19.474;2023-06-14T04:50:15;76.95;;;15.85;;
75218;SDS011;63801;49.414;19.474;2023-06-14T04:52:18;38.90;;;13.75;;
75218;SDS011;63801;49.414;19.474;2023-06-14T04:54:20;61.08;;;14.82;;
75218;SDS011;63801;49.414;19.474;2023-06-14T04:56:21;43.42;;;13.15;;
75218;SDS011;63801;49.414;19.474;2023-06-14T04:58:21;23.83;;;11.57;;
75218;SDS011;63801;49.414;19.474;2023-06-14T05:00:21;29.15;;;11.88;;
75218;SDS011;63801;49.414;19.474;2023-06-14T05:02:23;19.48;;;10.00;;
75218;SDS011;63801;49.414;19.474;2023-06-14T05:04:25;23.00;;;10.88;;
75218;SDS011;63801;49.414;19.474;2023-06-14T05:06:28;21.23;;;10.07;;
75218;SDS011;63801;49.414;19.474;2023-06-14T05:08:29;25.65;;;11.20;;
75218;SDS011;63801;49.414;19.474;2023-06-14T05:10:29;48.45;;;13.18;;
75218;SDS011;63801;49.414;19.474;2023-06-14T05:12:30;26.85;;;12.35;;
75218;SDS011;63801;49.414;19.474;2023-06-14T05:14:30;22.83;;;11.25;;
75218;SDS011;63801;49.414;19.474;2023-06-14T05:16:30;22.25;;;11.13;;
75218;SDS011;63801;49.414;19.474;2023-06-14T05:18:31;20.23;;;10.23;;
75218;SDS011;63801;49.414;19.474;2023-06-14T05:22:34;19.13;;;9.57;;
75218;SDS011;63801;49.414;19.474;2023-06-14T05:24:35;19.08;;;9.32;;
75218;SDS011;63801;49.414;19.474;2023-06-14T05:26:35;19.00;;;10.15;;
75218;SDS011;63801;49.414;19.474;2023-06-14T05:28:35;14.57;;;8.68;;
75218;SDS011;63801;49.414;19.474;2023-06-14T05:30:37;13.70;;;8.15;;
75218;SDS011;63801;49.414;19.474;2023-06-14T05:32:39;14.63;;;8.90;;
75218;SDS011;63801;49.414;19.474;2023-06-14T05:34:40;17.48;;;9.02;;
75218;SDS011;63801;49.414;19.474;2023-06-14T05:36:40;17.70;;;9.07;;
75218;SDS011;63801;49.414;19.474;2023-06-14T05:38:40;18.20;;;9.80;;
75218;SDS011;63801;49.414;19.474;2023-06-14T05:40:41;17.38;;;9.93;;
75218;SDS011;63801;49.414;19.474;2023-06-14T05:42:41;19.65;;;10.50;;
75218;SDS011;63801;49.414;19.474;2023-06-14T05:44:41;18.27;;;9.15;;
75218;SDS011;63801;49.414;19.474;2023-06-14T05:46:42;19.05;;;9.60;;
75218;SDS011;63801;49.414;19.474;2023-06-14T05:48:42;16.13;;;9.95;;
75218;SDS011;63801;49.414;19.474;2023-06-14T05:50:42;17.38;;;10.63;;
75218;SDS011;63801;49.414;19.474;2023-06-14T05:52:43;18.80;;;9.90;;
75218;SDS011;63801;49.414;19.474;2023-06-14T05:54:43;17.77;;;9.05;;
75218;SDS011;63801;49.414;19.474;2023-06-14T05:56:43;16.08;;;8.98;;
75218;SDS011;63801;49.414;19.474;2023-06-14T05:58:47;17.08;;;8.73;;
75218;SDS011;63801;49.414;19.474;2023-06-14T06:00:48;17.70;;;8.93;;
75218;SDS011;63801;49.414;19.474;2023-06-14T06:02:48;18.80;;;9.48;;
75218;SDS011;63801;49.414;19.474;2023-06-14T06:04:49;16.70;;;9.25;;
75218;SDS011;63801;49.414;19.474;2023-06-14T06:06:50;16.77;;;9.27;;
75218;SDS011;63801;49.414;19.474;2023-06-14T06:08:50;17.23;;;8.80;;
75218;SDS011;63801;49.414;19.474;2023-06-14T06:10:50;15.32;;;8.80;;
75218;SDS011;63801;49.414;19.474;2023-06-14T06:12:50;13.93;;;8.48;;
75218;SDS011;63801;49.414;19.474;2023-06-14T06:14:52;13.18;;;7.95;;
75218;SDS011;63801;49.414;19.474;2023-06-14T06:16:52;16.98;;;8.80;;
75218;SDS011;63801;49.414;19.474;2023-06-14T06:18:53;14.50;;;8.40;;
75218;SDS011;63801;49.414;19.474;2023-06-14T06:20:54;13.52;;;8.00;;
75218;SDS011;63801;49.414;19.474;2023-06-14T06:22:55;10.98;;;6.80;;
75218;SDS011;63801;49.414;19.474;2023-06-14T06:24:56;12.70;;;7.75;;
75218;SDS011;63801;49.414;19.474;2023-06-14T06:26:56;12.88;;;7.53;;
75218;SDS011;63801;49.414;19.474;2023-06-14T06:28:56;12.25;;;6.97;;
75218;SDS011;63801;49.414;19.474;2023-06-14T06:30:57;13.50;;;7.43;;
75218;SDS011;63801;49.414;19.474;2023-06-14T06:32:57;11.73;;;6.57;;
75218;SDS011;63801;49.414;19.474;2023-06-14T06:34:58;11.07;;;6.75;;
75218;SDS011;63801;49.414;19.474;2023-06-14T06:36:59;11.52;;;6.78;;
75218;SDS011;63801;49.414;19.474;2023-06-14T06:39:01;11.95;;;7.03;;
75218;SDS011;63801;49.414;19.474;2023-06-14T06:41:01;11.45;;;6.97;;
75218;SDS011;63801;49.414;19.474;2023-06-14T06:43:02;13.90;;;8.23;;
75218;SDS011;63801;49.414;19.474;2023-06-14T06:45:03;12.80;;;7.65;;
75218;SDS011;63801;49.414;19.474;2023-06-14T06:47:04;10.80;;;7.30;;
75218;SDS011;63801;49.414;19.474;2023-06-14T06:49:05;12.02;;;7.60;;
75218;SDS011;63801;49.414;19.474;2023-06-14T06:51:06;13.68;;;8.02;;
75218;SDS011;63801;49.414;19.474;2023-06-14T06:53:06;11.82;;;7.65;;
75218;SDS011;63801;49.414;19.474;2023-06-14T06:55:07;11.75;;;7.70;;
75218;SDS011;63801;49.414;19.474;2023-06-14T06:57:08;12.00;;;7.73;;
75218;SDS011;63801;49.414;19.474;2023-06-14T06:59:10;14.85;;;7.43;;
75218;SDS011;63801;49.414;19.474;2023-06-14T07:03:13;11.45;;;7.00;;
75218;SDS011;63801;49.414;19.474;2023-06-14T07:05:14;10.75;;;7.05;;
75218;SDS011;63801;49.414;19.474;2023-06-14T07:07:14;11.90;;;7.90;;
75218;SDS011;63801;49.414;19.474;2023-06-14T07:09:14;14.70;;;7.88;;
75218;SDS011;63801;49.414;19.474;2023-06-14T07:11:16;13.02;;;7.88;;
75218;SDS011;63801;49.414;19.474;2023-06-14T07:13:16;12.40;;;7.63;;
75218;SDS011;63801;49.414;19.474;2023-06-14T07:15:16;14.35;;;7.65;;
75218;SDS011;63801;49.414;19.474;2023-06-14T07:17:17;11.20;;;7.40;;
75218;SDS011;63801;49.414;19.474;2023-06-14T07:19:17;11.48;;;7.55;;
75218;SDS011;63801;49.414;19.474;2023-06-14T07:21:18;10.95;;;6.75;;
75218;SDS011;63801;49.414;19.474;2023-06-14T07:23:18;13.65;;;7.18;;
75218;SDS011;63801;49.414;19.474;2023-06-14T07:25:18;13.10;;;7.78;;
75218;SDS011;63801;49.414;19.474;2023-06-14T07:27:20;13.13;;;7.88;;
75218;SDS011;63801;49.414;19.474;2023-06-14T07:29:20;12.82;;;7.72;;
75218;SDS011;63801;49.414;19.474;2023-06-14T07:31:21;11.15;;;6.55;;
75218;SDS011;63801;49.414;19.474;2023-06-14T07:33:21;10.98;;;6.80;;
75218;SDS011;63801;49.414;19.474;2023-06-14T07:35:22;13.68;;;7.47;;
75218;SDS011;63801;49.414;19.474;2023-06-14T07:37:22;14.75;;;8.93;;
75218;SDS011;63801;49.414;19.474;2023-06-14T07:39:23;12.68;;;7.32;;
75218;SDS011;63801;49.414;19.474;2023-06-14T07:41:23;11.90;;;6.55;;
75218;SDS011;63801;49.414;19.474;2023-06-14T07:43:23;10.35;;;6.57;;
75218;SDS011;63801;49.414;19.474;2023-06-14T07:45:24;10.63;;;5.93;;
75218;SDS011;63801;49.414;19.474;2023-06-14T07:47:24;10.13;;;6.05;;
75218;SDS011;63801;49.414;19.474;2023-06-14T07:49:25;9.48;;;6.70;;
75218;SDS011;63801;49.414;19.474;2023-06-14T07:51:26;9.18;;;5.75;;
75218;SDS011;63801;49.414;19.474;2023-06-14T07:53:26;9.38;;;6.47;;
75218;SDS011;63801;49.414;19.474;2023-06-14T07:55:26;12.20;;;5.72;;
75218;SDS011;63801;49.414;19.474;2023-06-14T07:57:27;7.60;;;5.43;;
75218;SDS011;63801;49.414;19.474;2023-06-14T07:59:28;10.30;;;5.60;;
75218;SDS011;63801;49.414;19.474;2023-06-14T08:01:28;9.20;;;5.57;;
75218;SDS011;63801;49.414;19.474;2023-06-14T08:03:29;9.50;;;5.72;;
75218;SDS011;63801;49.414;19.474;2023-06-14T08:05:30;8.88;;;6.20;;
75218;SDS011;63801;49.414;19.474;2023-06-14T08:07:31;9.25;;;6.07;;
75218;SDS011;63801;49.414;19.474;2023-06-14T08:09:31;9.20;;;5.57;;
75218;SDS011;63801;49.414;19.474;2023-06-14T08:11:31;8.45;;;5.18;;
75218;SDS011;63801;49.414;19.474;2023-06-14T08:13:32;8.48;;;5.20;;
75218;SDS011;63801;49.414;19.474;2023-06-14T08:15:32;9.15;;;5.70;;
75218;SDS011;63801;49.414;19.474;2023-06-14T08:17:33;8.18;;;5.57;;
75218;SDS011;63801;49.414;19.474;2023-06-14T08:19:34;9.02;;;5.50;;
75218;SDS011;63801;49.414;19.474;2023-06-14T08:21:34;8.25;;;5.57;;
75218;SDS011;63801;49.414;19.474;2023-06-14T08:23:36;7.70;;;4.97;;
75218;SDS011;63801;49.414;19.474;2023-06-14T08:25:36;8.57;;;4.95;;
75218;SDS011;63801;49.414;19.474;2023-06-14T08:27:37;7.57;;;5.35;;
75218;SDS011;63801;49.414;19.474;2023-06-14T08:29:37;6.95;;;4.68;;
75218;SDS011;63801;49.414;19.474;2023-06-14T08:31:40;8.82;;;6.00;;
75218;SDS011;63801;49.414;19.474;2023-06-14T08:33:40;8.07;;;4.75;;
75218;SDS011;63801;49.414;19.474;2023-06-14T08:35:43;8.93;;;5.32;;
75218;SDS011;63801;49.414;19.474;2023-06-14T08:37:44;8.45;;;5.85;;
75218;SDS011;63801;49.414;19.474;2023-06-14T08:39:45;6.47;;;4.47;;
75218;SDS011;63801;49.414;19.474;2023-06-14T08:41:46;7.90;;;4.72;;
75218;SDS011;63801;49.414;19.474;2023-06-14T08:43:49;8.05;;;5.53;;
75218;SDS011;63801;49.414;19.474;2023-06-14T08:45:52;6.10;;;4.45;;
75218;SDS011;63801;49.414;19.474;2023-06-14T08:47:57;8.02;;;4.65;;
75218;SDS011;63801;49.414;19.474;2023-06-14T08:49:59;5.75;;;4.00;;
75218;SDS011;63801;49.414;19.474;2023-06-14T08:52:00;8.05;;;3.95;;
75218;SDS011;63801;49.414;19.474;2023-06-14T08:54:01;6.15;;;4.05;;
75218;SDS011;63801;49.414;19.474;2023-06-14T08:56:02;6.10;;;3.63;;
75218;SDS011;63801;49.414;19.474;2023-06-14T08:58:04;9.25;;;4.30;;
75218;SDS011;63801;49.414;19.474;2023-06-14T09:00:05;6.50;;;4.20;;
75218;SDS011;63801;49.414;19.474;2023-06-14T09:02:12;4.95;;;3.13;;
75218;SDS011;63801;49.414;19.474;2023-06-14T09:04:14;6.30;;;3.70;;
75218;SDS011;63801;49.414;19.474;2023-06-14T09:06:15;8.02;;;4.10;;
75218;SDS011;63801;49.414;19.474;2023-06-14T09:08:19;5.15;;;3.20;;
75218;SDS011;63801;49.414;19.474;2023-06-14T09:10:22;5.45;;;3.22;;
75218;SDS011;63801;49.414;19.474;2023-06-14T09:12:23;6.20;;;2.85;;
75218;SDS011;63801;49.414;19.474;2023-06-14T09:14:23;4.63;;;2.83;;
75218;SDS011;63801;49.414;19.474;2023-06-14T09:16:24;8.63;;;4.82;;
75218;SDS011;63801;49.414;19.474;2023-06-14T09:18:37;5.63;;;3.10;;
75218;SDS011;63801;49.414;19.474;2023-06-14T09:20:39;4.10;;;2.83;;
75218;SDS011;63801;49.414;19.474;2023-06-14T09:22:40;5.85;;;3.15;;
75218;SDS011;63801;49.414;19.474;2023-06-14T09:24:41;4.70;;;2.92;;
75218;SDS011;63801;49.414;19.474;2023-06-14T09:26:42;5.38;;;3.20;;
75218;SDS011;63801;49.414;19.474;2023-06-14T09:28:45;6.15;;;3.30;;
75218;SDS011;63801;49.414;19.474;2023-06-14T09:30:47;4.15;;;3.03;;
75218;SDS011;63801;49.414;19.474;2023-06-14T09:32:48;4.85;;;3.13;;
75218;SDS011;63801;49.414;19.474;2023-06-14T09:34:48;4.93;;;3.25;;
75218;SDS011;63801;49.414;19.474;2023-06-14T09:36:48;5.82;;;3.28;;
75218;SDS011;63801;49.414;19.474;2023-06-14T09:38:55;4.75;;;3.17;;
75218;SDS011;63801;49.414;19.474;2023-06-14T09:40:57;6.35;;;3.03;;
75218;SDS011;63801;49.414;19.474;2023-06-14T09:42:58;4.67;;;3.40;;
75218;SDS011;63801;49.414;19.474;2023-06-14T09:44:59;6.20;;;2.92;;
75218;SDS011;63801;49.414;19.474;2023-06-14T09:47:00;5.10;;;3.10;;
75218;SDS011;63801;49.414;19.474;2023-06-14T09:51:03;6.53;;;3.05;;
75218;SDS011;63801;49.414;19.474;2023-06-14T09:53:06;5.18;;;3.15;;
75218;SDS011;63801;49.414;19.474;2023-06-14T09:55:10;5.15;;;3.03;;
75218;SDS011;63801;49.414;19.474;2023-06-14T09:57:16;3.80;;;2.67;;
75218;SDS011;63801;49.414;19.474;2023-06-14T09:59:21;3.70;;;2.45;;
75218;SDS011;63801;49.414;19.474;2023-06-14T10:01:30;4.32;;;2.55;;
75218;SDS011;63801;49.414;19.474;2023-06-14T10:03:31;3.50;;;2.47;;
75218;SDS011;63801;49.414;19.474;2023-06-14T10:05:32;4.80;;;3.00;;
75218;SDS011;63801;49.414;19.474;2023-06-14T10:10:02;3.45;;;2.53;;
75218;SDS011;63801;49.414;19.474;2023-06-14T10:12:03;3.65;;;2.50;;
75218;SDS011;63801;49.414;19.474;2023-06-14T10:14:04;5.82;;;2.63;;
75218;SDS011;63801;49.414;19.474;2023-06-14T10:16:10;6.13;;;2.50;;
75218;SDS011;63801;49.414;19.474;2023-06-14T10:18:33;4.78;;;2.67;;
75218;SDS011;63801;49.414;19.474;2023-06-14T10:20:49;2.67;;;2.05;;
75218;SDS011;63801;49.414;19.474;2023-06-14T10:22:51;4.68;;;2.40;;
75218;SDS011;63801;49.414;19.474;2023-06-14T10:24:59;3.38;;;2.28;;
75218;SDS011;63801;49.414;19.474;2023-06-14T10:27:01;4.28;;;2.78;;
75218;SDS011;63801;49.414;19.474;2023-06-14T10:29:07;5.55;;;2.75;;
75218;SDS011;63801;49.414;19.474;2023-06-14T10:31:09;3.97;;;2.50;;
75218;SDS011;63801;49.414;19.474;2023-06-14T10:33:11;4.07;;;2.58;;
75218;SDS011;63801;49.414;19.474;2023-06-14T10:35:15;3.78;;;2.40;;
75218;SDS011;63801;49.414;19.474;2023-06-14T10:37:16;6.05;;;2.40;;
75218;SDS011;63801;49.414;19.474;2023-06-14T10:39:17;3.75;;;2.28;;
75218;SDS011;63801;49.414;19.474;2023-06-14T10:41:18;3.85;;;2.33;;
75218;SDS011;63801;49.414;19.474;2023-06-14T10:43:22;4.35;;;2.63;;
75218;SDS011;63801;49.414;19.474;2023-06-14T10:45:23;3.85;;;2.40;;
75218;SDS011;63801;49.414;19.474;2023-06-14T10:47:25;3.63;;;2.30;;
75218;SDS011;63801;49.414;19.474;2023-06-14T10:49:42;3.83;;;2.35;;
75218;SDS011;63801;49.414;19.474;2023-06-14T10:51:45;4.40;;;2.17;;
75218;SDS011;63801;49.414;19.474;2023-06-14T10:53:50;4.07;;;2.50;;
75218;SDS011;63801;49.414;19.474;2023-06-14T10:55:51;4.25;;;2.67;;
75218;SDS011;63801;49.414;19.474;2023-06-14T10:57:52;4.18;;;2.20;;
75218;SDS011;63801;49.414;19.474;2023-06-14T10:59:59;4.25;;;2.55;;
75218;SDS011;63801;49.414;19.474;2023-06-14T11:04:49;4.10;;;2.55;;
75218;SDS011;63801;49.414;19.474;2023-06-14T11:06:51;4.68;;;2.50;;
75218;SDS011;63801;49.414;19.474;2023-06-14T11:09:06;4.85;;;2.60;;
75218;SDS011;63801;49.414;19.474;2023-06-14T11:11:38;3.10;;;2.28;;
75218;SDS011;63801;49.414;19.474;2023-06-14T11:13:44;3.60;;;2.38;;
75218;SDS011;63801;49.414;19.474;2023-06-14T11:15:47;3.28;;;2.40;;
75218;SDS011;63801;49.414;19.474;2023-06-14T11:17:49;5.35;;;2.38;;
75218;SDS011;63801;49.414;19.474;2023-06-14T11:20:09;3.83;;;2.35;;
75218;SDS011;63801;49.414;19.474;2023-06-14T11:22:10;14.38;;;3.35;;
75218;SDS011;63801;49.414;19.474;2023-06-14T11:24:10;3.50;;;2.30;;
75218;SDS011;63801;49.414;19.474;2023-06-14T11:26:12;31.85;;;4.95;;
75218;SDS011;63801;49.414;19.474;2023-06-14T11:28:12;5.55;;;2.50;;
75218;SDS011;63801;49.414;19.474;2023-06-14T11:30:12;3.08;;;2.13;;
75218;SDS011;63801;49.414;19.474;2023-06-14T11:32:13;3.40;;;2.30;;
75218;SDS011;63801;49.414;19.474;2023-06-14T11:34:14;5.43;;;2.38;;
75218;SDS011;63801;49.414;19.474;2023-06-14T11:36:15;6.30;;;2.50;;
75218;SDS011;63801;49.414;19.474;2023-06-14T11:38:15;4.93;;;2.58;;
75218;SDS011;63801;49.414;19.474;2023-06-14T11:40:16;5.95;;;2.72;;
75218;SDS011;63801;49.414;19.474;2023-06-14T11:42:16;4.90;;;2.50;;
75218;SDS011;63801;49.414;19.474;2023-06-14T11:44:16;5.13;;;2.70;;
75218;SDS011;63801;49.414;19.474;2023-06-14T11:46:17;7.13;;;2.50;;
75218;SDS011;63801;49.414;19.474;2023-06-14T11:48:21;4.38;;;2.20;;
75218;SDS011;63801;49.414;19.474;2023-06-14T11:50:22;8.07;;;3.05;;
75218;SDS011;63801;49.414;19.474;2023-06-14T11:52:22;5.60;;;2.40;;
75218;SDS011;63801;49.414;19.474;2023-06-14T11:54:23;4.53;;;2.72;;
75218;SDS011;63801;49.414;19.474;2023-06-14T11:56:24;3.83;;;2.40;;
75218;SDS011;63801;49.414;19.474;2023-06-14T11:58:25;7.22;;;2.70;;
75218;SDS011;63801;49.414;19.474;2023-06-14T12:00:27;3.83;;;2.57;;
75218;SDS011;63801;49.414;19.474;2023-06-14T12:02:28;7.97;;;2.78;;
75218;SDS011;63801;49.414;19.474;2023-06-14T12:06:31;4.57;;;2.85;;
75218;SDS011;63801;49.414;19.474;2023-06-14T12:08:34;5.77;;;3.13;;
75218;SDS011;63801;49.414;19.474;2023-06-14T12:10:41;6.97;;;3.05;;
75218;SDS011;63801;49.414;19.474;2023-06-14T12:12:43;7.00;;;3.00;;